»·PEaware :: SWA267 KPHX-KAUS

SWA267 :: KPHX-KAUS

FLIGHT INFORMATION

Flight Status: Arrived
Operator:
Southwest Airlines
More flights by this operator :: More flights under this callsign
Pilot: Anonymous 13363 (13363)
Aircraft: BOEING 737-800
(B738)
More flights by this aircraft type
Origin: KPHX Phoenix Sky Harbor Intl
United States
Destination: KAUS Austin Bergstrom Intl
United States
More flights between these airports :: More routes between these airports
Route: +KATMN5 PHASE ELP J183 FUSCO DILLO LAIKS1
File this flight plan on PilotEdge
Remarks: Twitch.tv / ajonesieee
Altitude:
(Current/Filed)
36,000ft
Speed:
(Current/Filed)
460kts
Departed: 09-Oct-17 01:11 PM
Arrived: 09-Oct-17 03:07 PM
Distance/Time
Traveled:
755nm/1:55
Distance/Time
To Go:
Arrived

Flight Plot

Page will automatically refresh every two minutes.

Flight plan parsing failed; only flown route is shown


Map Options




Map Legend


Flown Route
Filed Route
Departure Airport
Arrival Airport
Navaid (VOR, NDB)
Fix

Horizontal Profiles

Position Reports

Time Latitude Longitude Heading Altitude Ground
Speed
09-Oct-17 12:45 33.434064 -111.994821 89 1116ft 0kts
09-Oct-17 12:46 33.434064 -111.994821 89 1116ft 0kts
09-Oct-17 12:47 33.434064 -111.994821 89 1116ft 0kts
09-Oct-17 12:48 33.434064 -111.994821 89 1116ft 0kts
09-Oct-17 12:49 33.434064 -111.994821 89 1116ft 0kts
09-Oct-17 12:50 33.434064 -111.994821 89 1116ft 0kts
09-Oct-17 12:51 33.434064 -111.994821 89 1116ft 0kts
09-Oct-17 12:52 33.434064 -111.994821 89 1116ft 0kts
09-Oct-17 12:53 33.434064 -111.994821 89 1116ft 0kts
09-Oct-17 12:54 33.434064 -111.994821 89 1116ft 0kts
09-Oct-17 12:55 33.434064 -111.994821 89 1116ft 0kts
09-Oct-17 12:56 33.434064 -111.994821 89 1116ft 0kts
09-Oct-17 12:57 33.434064 -111.994821 89 1116ft 0kts
09-Oct-17 12:58 33.434064 -111.994821 89 1116ft 0kts
09-Oct-17 12:59 33.434064 -111.994821 89 1116ft 0kts
09-Oct-17 13:00 33.434064 -111.994821 89 1116ft 0kts
09-Oct-17 13:01 33.434064 -111.994822 90 1116ft 0kts
09-Oct-17 13:02 33.434197 -111.995470 126 1116ft 2kts
09-Oct-17 13:03 33.433623 -111.995310 175 1116ft 5kts
09-Oct-17 13:04 33.433442 -111.995307 180 1117ft 0kts
09-Oct-17 13:05 33.433442 -111.995307 180 1117ft 0kts
09-Oct-17 13:06 33.433442 -111.995307 180 1117ft 0kts
09-Oct-17 13:07 33.433442 -111.995307 180 1117ft 0kts
09-Oct-17 13:08 33.432206 -111.995848 251 1117ft 10kts
09-Oct-17 13:09 33.432158 -112.000600 269 1117ft 15kts
09-Oct-17 13:10 33.432143 -112.006161 272 1116ft 18kts
09-Oct-17 13:11 33.432152 -112.012809 269 1116ft 21kts
09-Oct-17 13:12 33.432166 -112.020286 270 1116ft 18kts
09-Oct-17 13:13 33.432161 -112.024539 269 1116ft 13kts
09-Oct-17 13:14 33.431667 -112.027001 189 1117ft 5kts
09-Oct-17 13:15 33.431107 -112.023907 89 1117ft 70kts
09-Oct-17 13:16 33.430414 -111.976864 86 2406ft 185kts
09-Oct-17 13:17 33.434566 -111.912325 83 5293ft 211kts
09-Oct-17 13:18 33.417671 -111.837178 135 7918ft 271kts
09-Oct-17 13:19 33.358529 -111.771094 138 10489ft 327kts
09-Oct-17 13:20 33.291324 -111.695927 139 13302ft 360kts
09-Oct-17 13:21 33.216555 -111.612532 139 16670ft 380kts
09-Oct-17 13:22 33.137646 -111.524623 140 20045ft 401kts
09-Oct-17 13:23 33.061493 -111.436978 128 20953ft 412kts
09-Oct-17 13:24 33.001115 -111.325131 125 21276ft 422kts
09-Oct-17 13:25 32.935682 -111.206660 125 24407ft 434kts
09-Oct-17 13:26 32.870200 -111.088377 125 26891ft 450kts
09-Oct-17 13:27 32.800192 -110.961693 125 29132ft 467kts
09-Oct-17 13:28 32.728087 -110.830974 124 31196ft 482kts
09-Oct-17 13:29 32.654525 -110.697350 124 33141ft 493kts
09-Oct-17 13:30 32.613828 -110.545850 103 35404ft 488kts
09-Oct-17 13:31 32.579700 -110.391329 105 36965ft 492kts
09-Oct-17 13:32 32.545381 -110.238742 106 36965ft 495kts
09-Oct-17 13:33 32.511293 -110.086455 107 36965ft 493kts
09-Oct-17 13:34 32.479459 -109.943599 107 36967ft 494kts
09-Oct-17 13:35 32.445268 -109.789288 106 36969ft 494kts
09-Oct-17 13:36 32.427313 -109.677293 99 36975ft 497kts
09-Oct-17 13:37 32.415136 -109.579768 100 36971ft 497kts
09-Oct-17 13:38 32.405118 -109.501841 100 36973ft 497kts
09-Oct-17 13:39 32.394459 -109.418835 99 36973ft 497kts
09-Oct-17 13:40 32.376992 -109.281681 100 36967ft 502kts
09-Oct-17 13:41 32.358092 -109.135446 103 36964ft 498kts
09-Oct-17 13:42 32.329519 -108.992221 105 36967ft 496kts
09-Oct-17 13:43 32.300622 -108.847664 105 36968ft 497kts
09-Oct-17 13:44 32.271964 -108.703348 105 37013ft 497kts
09-Oct-17 13:45 32.243910 -108.561250 104 37025ft 497kts
09-Oct-17 13:46 32.215944 -108.418786 104 37027ft 497kts
09-Oct-17 13:47 32.191599 -108.293950 105 37016ft 497kts
09-Oct-17 13:48 32.161539 -108.138976 104 37019ft 498kts
09-Oct-17 13:49 32.131963 -107.985564 104 37015ft 497kts
09-Oct-17 13:50 32.102136 -107.830025 104 37023ft 499kts
09-Oct-17 13:51 32.072245 -107.673050 104 37024ft 499kts
09-Oct-17 13:52 32.042833 -107.517574 104 37026ft 499kts
09-Oct-17 13:53 32.013274 -107.360298 103 37028ft 499kts
09-Oct-17 13:54 31.985501 -107.211314 104 37018ft 499kts
09-Oct-17 13:55 31.956590 -107.055470 104 37020ft 499kts
09-Oct-17 13:56 31.928297 -106.901967 103 37022ft 499kts
09-Oct-17 13:57 31.900742 -106.751494 103 37008ft 499kts
09-Oct-17 13:59 31.874180 -106.605511 103 36973ft 499kts
09-Oct-17 14:00 31.849373 -106.468330 103 36973ft 499kts
09-Oct-17 14:01 31.824816 -106.331698 103 36968ft 499kts
09-Oct-17 14:02 31.803731 -106.187009 100 36967ft 499kts
09-Oct-17 14:03 31.783858 -106.040255 100 37018ft 499kts
09-Oct-17 14:04 31.762993 -105.887570 100 37022ft 499kts
09-Oct-17 14:05 31.742177 -105.733945 100 37024ft 499kts
09-Oct-17 14:06 31.721066 -105.576717 100 37026ft 498kts
09-Oct-17 14:07 31.700008 -105.418420 100 37028ft 498kts
09-Oct-17 14:08 31.679864 -105.265297 100 37018ft 498kts
09-Oct-17 14:09 31.659671 -105.110589 100 37020ft 498kts
09-Oct-17 14:10 31.642129 -104.975085 100 37021ft 498kts
09-Oct-17 14:11 31.628603 -104.869835 100 37022ft 498kts
09-Oct-17 14:12 31.610739 -104.729775 99 37024ft 498kts
09-Oct-17 14:13 31.599647 -104.642203 99 37025ft 499kts
09-Oct-17 14:14 31.580715 -104.491610 99 36487ft 499kts
09-Oct-17 14:15 31.570646 -104.410946 99 36008ft 497kts
09-Oct-17 14:16 31.564133 -104.358556 99 35711ft 499kts
09-Oct-17 14:17 31.554884 -104.283588 99 35259ft 500kts
09-Oct-17 14:18 31.539382 -104.157431 99 35010ft 502kts
09-Oct-17 14:19 31.532597 -104.101976 99 34970ft 511kts
09-Oct-17 14:20 31.525843 -104.046612 99 34949ft 524kts
09-Oct-17 14:20 31.515382 -103.960326 99 34916ft 523kts
09-Oct-17 14:21 31.495220 -103.792763 99 34915ft 523kts
09-Oct-17 14:23 31.475272 -103.625156 99 34917ft 522kts
09-Oct-17 14:24 31.456559 -103.475955 100 34919ft 522kts
09-Oct-17 14:24 31.437742 -103.339025 101 34917ft 521kts
09-Oct-17 14:26 31.411119 -103.144235 100 34911ft 521kts
09-Oct-17 14:26 31.392096 -103.003917 100 34913ft 526kts
09-Oct-17 14:27 31.370104 -102.840276 100 34914ft 526kts
09-Oct-17 14:28 31.348013 -102.674313 100 34966ft 525kts
09-Oct-17 14:29 31.326762 -102.513099 100 34971ft 524kts
09-Oct-17 14:30 31.305433 -102.349723 100 34974ft 524kts
09-Oct-17 14:31 31.284165 -102.184940 100 34964ft 523kts
09-Oct-17 14:32 31.262947 -102.019045 101 34936ft 520kts
09-Oct-17 14:33 31.242512 -101.857911 101 34940ft 520kts
09-Oct-17 14:34 31.222268 -101.696265 101 34905ft 500kts
09-Oct-17 14:35 31.202427 -101.536976 100 34924ft 522kts
09-Oct-17 14:36 31.188802 -101.371687 83 34906ft 525kts
09-Oct-17 14:37 31.172126 -101.214936 112 34921ft 514kts
09-Oct-17 14:38 31.142716 -101.054961 102 34860ft 518kts
09-Oct-17 14:39 31.118977 -100.892044 102 34861ft 506kts
09-Oct-17 14:40 31.096516 -100.738523 103 34861ft 500kts
09-Oct-17 14:41 31.073429 -100.581813 103 34858ft 500kts
09-Oct-17 14:42 31.050162 -100.425182 103 34859ft 500kts
09-Oct-17 14:43 31.026718 -100.268397 103 34854ft 499kts
09-Oct-17 14:44 31.002939 -100.110653 103 34855ft 499kts
09-Oct-17 14:45 30.979032 -99.953184 103 34829ft 499kts
09-Oct-17 14:46 30.954919 -99.794381 103 34829ft 500kts
09-Oct-17 14:47 30.930706 -99.636333 103 34830ft 500kts
09-Oct-17 14:48 30.906576 -99.480648 102 34833ft 499kts
09-Oct-17 14:49 30.886157 -99.349777 102 34850ft 502kts
09-Oct-17 14:50 30.869314 -99.242613 102 34492ft 481kts
09-Oct-17 14:51 30.847157 -99.102859 102 32139ft 463kts
09-Oct-17 14:52 30.824602 -98.961211 99 29056ft 450kts
09-Oct-17 14:53 30.808239 -98.822071 99 26416ft 429kts
09-Oct-17 14:54 30.791751 -98.689396 99 23809ft 410kts
09-Oct-17 14:55 30.775927 -98.563601 99 21374ft 390kts
09-Oct-17 14:56 30.760890 -98.445423 99 19095ft 369kts
09-Oct-17 14:57 30.725981 -98.347146 116 16801ft 354kts
09-Oct-17 14:58 30.693822 -98.266404 115 14787ft 348kts
09-Oct-17 14:59 30.664429 -98.192077 115 12976ft 342kts
09-Oct-17 15:00 30.634095 -98.115379 115 11155ft 339kts
09-Oct-17 15:01 30.602054 -98.034873 115 9742ft 323kts
09-Oct-17 15:02 30.576871 -97.971542 115 8646ft 308kts
09-Oct-17 15:03 30.537916 -97.911863 145 7249ft 295kts
09-Oct-17 15:04 30.486208 -97.866087 145 5571ft 294kts
09-Oct-17 15:05 30.433115 -97.818987 144 4058ft 281kts
09-Oct-17 15:06 30.387314 -97.778252 142 3988ft 248kts
09-Oct-17 15:07 30.348981 -97.729910 133 3550ft 250kts
09-Oct-17 15:08 30.309187 -97.686797 135 3045ft 219kts
09-Oct-17 15:09 30.266022 -97.681006 185 2154ft 169kts
09-Oct-17 15:10 30.228569 -97.679870 176 885ft 144kts
09-Oct-17 15:11 30.202725 -97.678994 175 486ft 37kts
09-Oct-17 15:12 30.198883 -97.676230 89 485ft 8kts
09-Oct-17 15:13 30.198968 -97.671572 88 485ft 22kts
09-Oct-17 15:14 30.200841 -97.668236 96 486ft 14kts
09-Oct-17 15:15 30.201267 -97.667164 0 485ft 1kts
09-Oct-17 15:16 30.201290 -97.667163 0 485ft 0kts
09-Oct-17 15:17 30.201290 -97.667163 0 485ft 0kts
09-Oct-17 15:18 30.201290 -97.667163 0 485ft 0kts
09-Oct-17 15:19 30.199032 -97.670417 80 485ft 20kts
09-Oct-17 15:20 30.209046 -97.679210 176 487ft 116kts

Navigation Log

Ident Type
Flight plan parsing failed, navigation log unavailable